Terminal Aerodrome Forecast
Issued by NWS Wilmington, OH

Home | Current Version | Previous Version | Text Only | Print | Product List | Glossary On
Versions: 1 2 3 4 5 6 7 8 9 10 11 12 13 14 15 16 17 18 19 20 21 22
000
FTUS41 KILN 282331
TAFILN
TAF
KILN 282331Z 2900/2924 22008KT P6SM SCT150
     FM290300 21004KT P6SM BKN200
     FM291000 20006KT P6SM BKN060
     FM291600 20009KT P6SM SCT040 BKN200
     FM292200 23010KT P6SM VCTS BKN050CB=

USA.gov is the U.S. government's official web portal to all federal, state and local government web resources and services.